sensor_id;sensor_type;location;lat;lon;timestamp;pressure;altitude;pressure_sealevel;temperature;humidity
46714;BME280;32445;51.376;10.874;2023-06-14T00:01:43;99422.75;;;20.08;33.75
46714;BME280;32445;51.376;10.874;2023-06-14T00:04:45;99416.31;;;19.99;34.55
46714;BME280;32445;51.376;10.874;2023-06-14T00:07:48;99413.22;;;19.93;34.36
46714;BME280;32445;51.376;10.874;2023-06-14T00:10:49;99409.22;;;19.87;34.22
46714;BME280;32445;51.376;10.874;2023-06-14T00:13:49;99408.81;;;19.80;34.71
46714;BME280;32445;51.376;10.874;2023-06-14T00:16:50;99405.78;;;19.72;34.42
46714;BME280;32445;51.376;10.874;2023-06-14T00:19:52;99404.41;;;19.66;34.44
46714;BME280;32445;51.376;10.874;2023-06-14T00:22:53;99398.69;;;19.60;34.69
46714;BME280;32445;51.376;10.874;2023-06-14T00:25:55;99407.00;;;19.53;34.85
46714;BME280;32445;51.376;10.874;2023-06-14T00:28:55;99413.50;;;19.48;34.61
46714;BME280;32445;51.376;10.874;2023-06-14T00:31:56;99416.44;;;19.43;34.90
46714;BME280;32445;51.376;10.874;2023-06-14T00:34:57;99421.22;;;19.36;35.14
46714;BME280;32445;51.376;10.874;2023-06-14T00:37:57;99420.78;;;19.30;34.88
46714;BME280;32445;51.376;10.874;2023-06-14T00:40:57;99417.59;;;19.25;35.11
46714;BME280;32445;51.376;10.874;2023-06-14T00:43:58;99414.41;;;19.19;35.30
46714;BME280;32445;51.376;10.874;2023-06-14T00:46:59;99414.91;;;19.12;35.40
46714;BME280;32445;51.376;10.874;2023-06-14T00:50:01;99416.97;;;19.07;35.48
46714;BME280;32445;51.376;10.874;2023-06-14T00:53:02;99418.19;;;19.01;35.64
46714;BME280;32445;51.376;10.874;2023-06-14T00:56:03;99426.47;;;18.95;35.68
46714;BME280;32445;51.376;10.874;2023-06-14T00:59:03;99422.44;;;18.89;36.13
46714;BME280;32445;51.376;10.874;2023-06-14T01:02:04;99426.25;;;18.83;35.72
46714;BME280;32445;51.376;10.874;2023-06-14T01:05:06;99424.75;;;18.79;36.14
46714;BME280;32445;51.376;10.874;2023-06-14T01:11:20;99441.41;;;18.65;36.40
46714;BME280;32445;51.376;10.874;2023-06-14T01:14:23;99436.50;;;18.59;36.35
46714;BME280;32445;51.376;10.874;2023-06-14T01:17:26;99441.19;;;18.54;36.49
46714;BME280;32445;51.376;10.874;2023-06-14T01:20:29;99438.81;;;18.49;36.93
46714;BME280;32445;51.376;10.874;2023-06-14T01:23:29;99447.91;;;18.44;36.70
46714;BME280;32445;51.376;10.874;2023-06-14T01:26:32;99445.75;;;18.36;36.86
46714;BME280;32445;51.376;10.874;2023-06-14T01:29:33;99443.41;;;18.31;36.40
46714;BME280;32445;51.376;10.874;2023-06-14T01:32:41;99447.34;;;18.24;36.88
46714;BME280;32445;51.376;10.874;2023-06-14T01:35:50;99443.19;;;18.20;37.62
46714;BME280;32445;51.376;10.874;2023-06-14T01:38:51;99434.72;;;18.15;37.07
46714;BME280;32445;51.376;10.874;2023-06-14T01:41:52;99437.63;;;18.10;37.41
46714;BME280;32445;51.376;10.874;2023-06-14T01:44:53;99428.31;;;18.05;37.65
46714;BME280;32445;51.376;10.874;2023-06-14T01:47:55;99427.78;;;18.00;37.16
46714;BME280;32445;51.376;10.874;2023-06-14T01:50:55;99431.50;;;17.95;37.05
46714;BME280;32445;51.376;10.874;2023-06-14T01:53:56;99437.00;;;17.91;36.94
46714;BME280;32445;51.376;10.874;2023-06-14T01:56:57;99434.69;;;17.85;37.00
46714;BME280;32445;51.376;10.874;2023-06-14T01:59:57;99427.94;;;17.80;36.76
46714;BME280;32445;51.376;10.874;2023-06-14T02:02:58;99427.38;;;17.75;37.00
46714;BME280;32445;51.376;10.874;2023-06-14T02:05:58;99434.63;;;17.70;37.85
46714;BME280;32445;51.376;10.874;2023-06-14T02:08:59;99437.53;;;17.66;37.58
46714;BME280;32445;51.376;10.874;2023-06-14T02:11:59;99437.84;;;17.59;38.04
46714;BME280;32445;51.376;10.874;2023-06-14T02:14:59;99438.22;;;17.53;37.55
46714;BME280;32445;51.376;10.874;2023-06-14T02:18:04;99444.56;;;17.49;37.62
46714;BME280;32445;51.376;10.874;2023-06-14T02:21:04;99439.56;;;17.44;37.90
46714;BME280;32445;51.376;10.874;2023-06-14T02:24:05;99445.09;;;17.40;37.86
46714;BME280;32445;51.376;10.874;2023-06-14T02:27:06;99447.09;;;17.35;38.07
46714;BME280;32445;51.376;10.874;2023-06-14T02:30:07;99450.00;;;17.30;37.74
46714;BME280;32445;51.376;10.874;2023-06-14T02:33:07;99454.53;;;17.26;37.96
46714;BME280;32445;51.376;10.874;2023-06-14T02:36:08;99453.88;;;17.23;38.40
46714;BME280;32445;51.376;10.874;2023-06-14T02:39:09;99454.13;;;17.18;38.37
46714;BME280;32445;51.376;10.874;2023-06-14T02:42:10;99450.81;;;17.15;37.36
46714;BME280;32445;51.376;10.874;2023-06-14T02:45:10;99460.66;;;17.11;37.80
46714;BME280;32445;51.376;10.874;2023-06-14T02:48:11;99452.25;;;17.04;37.97
46714;BME280;32445;51.376;10.874;2023-06-14T02:51:11;99454.25;;;16.99;38.08
46714;BME280;32445;51.376;10.874;2023-06-14T02:54:12;99456.22;;;16.95;38.16
46714;BME280;32445;51.376;10.874;2023-06-14T02:57:13;99452.97;;;16.90;38.36
46714;BME280;32445;51.376;10.874;2023-06-14T03:00:14;99461.91;;;16.86;38.50
46714;BME280;32445;51.376;10.874;2023-06-14T03:03:14;99464.78;;;16.82;38.54
46714;BME280;32445;51.376;10.874;2023-06-14T03:06:16;99461.56;;;16.76;38.31
46714;BME280;32445;51.376;10.874;2023-06-14T03:09:16;99461.78;;;16.72;38.49
46714;BME280;32445;51.376;10.874;2023-06-14T03:12:17;99477.66;;;16.69;38.77
46714;BME280;32445;51.376;10.874;2023-06-14T03:15:17;99472.59;;;16.66;39.04
46714;BME280;32445;51.376;10.874;2023-06-14T03:18:18;99485.03;;;16.62;39.23
46714;BME280;32445;51.376;10.874;2023-06-14T03:21:19;99480.00;;;16.57;39.25
46714;BME280;32445;51.376;10.874;2023-06-14T03:24:20;99481.03;;;16.55;39.23
46714;BME280;32445;51.376;10.874;2023-06-14T03:27:20;99474.25;;;16.51;38.98
46714;BME280;32445;51.376;10.874;2023-06-14T03:30:21;99479.63;;;16.48;39.66
46714;BME280;32445;51.376;10.874;2023-06-14T03:33:21;99482.38;;;16.44;39.70
46714;BME280;32445;51.376;10.874;2023-06-14T03:36:22;99487.78;;;16.41;39.65
46714;BME280;32445;51.376;10.874;2023-06-14T03:39:22;99482.72;;;16.38;39.55
46714;BME280;32445;51.376;10.874;2023-06-14T03:42:23;99488.94;;;16.36;39.76
46714;BME280;32445;51.376;10.874;2023-06-14T03:45:23;99494.25;;;16.34;39.57
46714;BME280;32445;51.376;10.874;2023-06-14T03:48:23;99492.63;;;16.32;40.01
46714;BME280;32445;51.376;10.874;2023-06-14T03:51:24;99495.41;;;16.29;39.93
46714;BME280;32445;51.376;10.874;2023-06-14T03:54:25;99499.81;;;16.28;40.34
46714;BME280;32445;51.376;10.874;2023-06-14T03:57:26;99501.66;;;16.26;40.06
46714;BME280;32445;51.376;10.874;2023-06-14T04:00:27;99503.44;;;16.25;40.36
46714;BME280;32445;51.376;10.874;2023-06-14T04:03:27;99507.75;;;16.26;40.28
46714;BME280;32445;51.376;10.874;2023-06-14T04:06:29;99502.59;;;16.25;40.78
46714;BME280;32445;51.376;10.874;2023-06-14T04:09:32;99506.13;;;16.24;40.74
46714;BME280;32445;51.376;10.874;2023-06-14T04:12:33;99505.22;;;16.25;40.94
46714;BME280;32445;51.376;10.874;2023-06-14T04:15:33;99510.53;;;16.23;40.69
46714;BME280;32445;51.376;10.874;2023-06-14T04:18:34;99512.28;;;16.23;41.01
46714;BME280;32445;51.376;10.874;2023-06-14T04:21:34;99515.84;;;16.22;40.63
46714;BME280;32445;51.376;10.874;2023-06-14T04:24:35;99517.59;;;16.21;40.76
46714;BME280;32445;51.376;10.874;2023-06-14T04:27:35;99515.91;;;16.20;40.80
46714;BME280;32445;51.376;10.874;2023-06-14T04:30:36;99514.22;;;16.19;41.05
46714;BME280;32445;51.376;10.874;2023-06-14T04:33:38;99520.38;;;16.18;41.91
46714;BME280;32445;51.376;10.874;2023-06-14T04:36:43;99530.84;;;16.18;41.77
46714;BME280;32445;51.376;10.874;2023-06-14T04:39:49;99525.69;;;16.17;42.05
46714;BME280;32445;51.376;10.874;2023-06-14T04:42:50;99529.13;;;16.17;42.54
46714;BME280;32445;51.376;10.874;2023-06-14T04:45:51;99535.31;;;16.16;42.60
46714;BME280;32445;51.376;10.874;2023-06-14T04:48:52;99536.16;;;16.17;42.36
46714;BME280;32445;51.376;10.874;2023-06-14T04:51:52;99544.84;;;16.17;42.89
46714;BME280;32445;51.376;10.874;2023-06-14T04:54:59;99548.41;;;16.16;42.95
46714;BME280;32445;51.376;10.874;2023-06-14T04:58:00;99542.22;;;16.17;42.94
46714;BME280;32445;51.376;10.874;2023-06-14T05:01:00;99546.63;;;16.17;42.91
46714;BME280;32445;51.376;10.874;2023-06-14T05:04:01;99541.31;;;16.18;42.95
46714;BME280;32445;51.376;10.874;2023-06-14T05:07:02;99547.41;;;16.19;43.19
46714;BME280;32445;51.376;10.874;2023-06-14T05:10:02;99543.88;;;16.20;43.19
46714;BME280;32445;51.376;10.874;2023-06-14T05:13:03;99549.03;;;16.21;43.53
46714;BME280;32445;51.376;10.874;2023-06-14T05:16:04;99544.66;;;16.22;43.53
46714;BME280;32445;51.376;10.874;2023-06-14T05:19:04;99544.56;;;16.23;43.79
46714;BME280;32445;51.376;10.874;2023-06-14T05:22:04;99546.25;;;16.24;43.65
46714;BME280;32445;51.376;10.874;2023-06-14T05:25:05;99552.34;;;16.25;43.91
46714;BME280;32445;51.376;10.874;2023-06-14T05:28:06;99547.88;;;16.27;44.51
46714;BME280;32445;51.376;10.874;2023-06-14T05:31:06;99543.47;;;16.27;44.34
46714;BME280;32445;51.376;10.874;2023-06-14T05:34:06;99539.88;;;16.30;43.96
46714;BME280;32445;51.376;10.874;2023-06-14T05:37:07;99536.41;;;16.30;44.63
46714;BME280;32445;51.376;10.874;2023-06-14T05:40:07;99539.03;;;16.30;44.76
46714;BME280;32445;51.376;10.874;2023-06-14T05:43:09;99551.97;;;16.33;44.80
46714;BME280;32445;51.376;10.874;2023-06-14T05:46:10;99544.91;;;16.35;44.90
46714;BME280;32445;51.376;10.874;2023-06-14T05:49:10;99547.38;;;16.38;44.37
46714;BME280;32445;51.376;10.874;2023-06-14T05:52:12;99542.03;;;16.39;44.84
46714;BME280;32445;51.376;10.874;2023-06-14T05:55:13;99541.81;;;16.44;44.48
46714;BME280;32445;51.376;10.874;2023-06-14T05:58:13;99541.72;;;16.46;44.54
46714;BME280;32445;51.376;10.874;2023-06-14T06:01:14;99544.19;;;16.49;44.35
46714;BME280;32445;51.376;10.874;2023-06-14T06:04:15;99545.66;;;16.54;44.89
46714;BME280;32445;51.376;10.874;2023-06-14T06:07:15;99554.22;;;16.58;44.73
46714;BME280;32445;51.376;10.874;2023-06-14T06:10:16;99546.22;;;16.61;44.15
46714;BME280;32445;51.376;10.874;2023-06-14T06:13:16;99553.06;;;16.64;44.75
46714;BME280;32445;51.376;10.874;2023-06-14T06:16:17;99553.66;;;16.69;45.13
46714;BME280;32445;51.376;10.874;2023-06-14T06:19:17;99561.38;;;16.72;45.36
46714;BME280;32445;51.376;10.874;2023-06-14T06:22:17;99556.84;;;16.75;44.76
46714;BME280;32445;51.376;10.874;2023-06-14T06:25:18;99559.31;;;16.78;44.85
46714;BME280;32445;51.376;10.874;2023-06-14T06:28:19;99566.84;;;16.85;44.40
46714;BME280;32445;51.376;10.874;2023-06-14T06:31:20;99564.97;;;16.88;45.02
46714;BME280;32445;51.376;10.874;2023-06-14T06:34:22;99570.03;;;16.91;45.24
46714;BME280;32445;51.376;10.874;2023-06-14T06:37:22;99567.19;;;16.96;44.88
46714;BME280;32445;51.376;10.874;2023-06-14T06:40:23;99568.72;;;17.00;44.45
46714;BME280;32445;51.376;10.874;2023-06-14T06:43:23;99571.97;;;17.05;44.54
46714;BME280;32445;51.376;10.874;2023-06-14T06:46:23;99572.56;;;17.10;44.76
46714;BME280;32445;51.376;10.874;2023-06-14T06:49:24;99577.50;;;17.17;44.59
46714;BME280;32445;51.376;10.874;2023-06-14T06:52:24;99579.78;;;17.23;44.71
46714;BME280;32445;51.376;10.874;2023-06-14T06:55:25;99586.50;;;17.28;44.39
46714;BME280;32445;51.376;10.874;2023-06-14T06:58:25;99582.69;;;17.34;44.43
46714;BME280;32445;51.376;10.874;2023-06-14T07:01:26;99591.16;;;17.39;43.97
46714;BME280;32445;51.376;10.874;2023-06-14T07:04:29;99584.69;;;17.46;44.69
46714;BME280;32445;51.376;10.874;2023-06-14T07:07:29;99593.06;;;17.53;44.37
46714;BME280;32445;51.376;10.874;2023-06-14T07:10:30;99588.25;;;17.61;44.10
46714;BME280;32445;51.376;10.874;2023-06-14T07:13:31;99594.03;;;17.68;44.24
46714;BME280;32445;51.376;10.874;2023-06-14T07:16:32;99592.84;;;17.74;43.75
46714;BME280;32445;51.376;10.874;2023-06-14T07:19:32;99595.97;;;17.80;43.39
46714;BME280;32445;51.376;10.874;2023-06-14T07:22:33;99591.31;;;17.86;43.58
46714;BME280;32445;51.376;10.874;2023-06-14T07:25:33;99590.00;;;17.94;43.00
46714;BME280;32445;51.376;10.874;2023-06-14T07:28:34;99587.00;;;18.01;42.62
46714;BME280;32445;51.376;10.874;2023-06-14T07:31:34;99589.22;;;18.08;42.84
46714;BME280;32445;51.376;10.874;2023-06-14T07:34:34;99596.75;;;18.14;42.66
46714;BME280;32445;51.376;10.874;2023-06-14T07:37:35;99597.28;;;18.21;42.43
46714;BME280;32445;51.376;10.874;2023-06-14T07:40:36;99581.25;;;18.26;42.66
46714;BME280;32445;51.376;10.874;2023-06-14T07:43:36;99596.56;;;18.33;42.31
46714;BME280;32445;51.376;10.874;2023-06-14T07:46:37;99594.34;;;18.42;42.38
46714;BME280;32445;51.376;10.874;2023-06-14T07:49:38;99597.38;;;18.50;42.15
46714;BME280;32445;51.376;10.874;2023-06-14T07:52:38;99600.41;;;18.58;42.18
46714;BME280;32445;51.376;10.874;2023-06-14T07:55:38;99593.78;;;18.67;42.62
46714;BME280;32445;51.376;10.874;2023-06-14T07:58:39;99596.88;;;18.74;42.72
46714;BME280;32445;51.376;10.874;2023-06-14T08:01:40;99595.50;;;18.82;42.23
46714;BME280;32445;51.376;10.874;2023-06-14T08:04:40;99608.16;;;18.92;41.86
46714;BME280;32445;51.376;10.874;2023-06-14T08:07:40;99598.88;;;19.00;42.19
46714;BME280;32445;51.376;10.874;2023-06-14T08:10:41;99603.50;;;19.11;41.98
46714;BME280;32445;51.376;10.874;2023-06-14T08:13:42;99613.34;;;19.22;41.57
46714;BME280;32445;51.376;10.874;2023-06-14T08:16:42;99603.13;;;19.32;41.65
46714;BME280;32445;51.376;10.874;2023-06-14T08:19:42;99619.94;;;19.44;41.40
46714;BME280;32445;51.376;10.874;2023-06-14T08:22:43;99608.78;;;19.54;41.11
46714;BME280;32445;51.376;10.874;2023-06-14T08:25:46;99613.34;;;19.65;40.73
46714;BME280;32445;51.376;10.874;2023-06-14T08:28:46;99608.25;;;19.77;40.46
46714;BME280;32445;51.376;10.874;2023-06-14T08:31:46;99610.16;;;19.89;40.30
46714;BME280;32445;51.376;10.874;2023-06-14T08:34:47;99617.38;;;20.00;40.32
46714;BME280;32445;51.376;10.874;2023-06-14T08:37:47;99601.72;;;20.11;40.24
46714;BME280;32445;51.376;10.874;2023-06-14T08:40:50;99611.59;;;20.22;39.50
46714;BME280;32445;51.376;10.874;2023-06-14T08:43:52;99600.44;;;20.31;39.68
46714;BME280;32445;51.376;10.874;2023-06-14T08:46:55;99603.22;;;20.43;39.59
46714;BME280;32445;51.376;10.874;2023-06-14T08:49:57;99606.00;;;20.54;39.35
46714;BME280;32445;51.376;10.874;2023-06-14T08:53:00;99607.84;;;20.66;39.22
46714;BME280;32445;51.376;10.874;2023-06-14T08:56:02;99617.59;;;20.79;38.70
46714;BME280;32445;51.376;10.874;2023-06-14T08:59:05;99617.81;;;20.88;38.82
46714;BME280;32445;51.376;10.874;2023-06-14T09:02:06;99617.09;;;20.99;38.58
46714;BME280;32445;51.376;10.874;2023-06-14T09:05:07;99617.84;;;21.14;38.20
46714;BME280;32445;51.376;10.874;2023-06-14T09:08:08;99624.81;;;21.28;37.92
46714;BME280;32445;51.376;10.874;2023-06-14T09:11:14;99619.53;;;21.41;37.65
46714;BME280;32445;51.376;10.874;2023-06-14T09:14:15;99615.34;;;21.51;37.22
46714;BME280;32445;51.376;10.874;2023-06-14T09:17:15;99626.94;;;21.62;37.23
46714;BME280;32445;51.376;10.874;2023-06-14T09:20:15;99614.88;;;21.70;36.56
46714;BME280;32445;51.376;10.874;2023-06-14T09:23:21;99624.81;;;21.80;36.88
46714;BME280;32445;51.376;10.874;2023-06-14T09:26:22;99622.00;;;21.94;36.30
46714;BME280;32445;51.376;10.874;2023-06-14T09:29:27;99609.38;;;22.10;36.60
46714;BME280;32445;51.376;10.874;2023-06-14T09:32:28;99621.47;;;22.26;35.73
46714;BME280;32445;51.376;10.874;2023-06-14T09:35:31;99624.94;;;22.39;35.08
46714;BME280;32445;51.376;10.874;2023-06-14T09:38:34;99627.41;;;22.54;34.83
46714;BME280;32445;51.376;10.874;2023-06-14T09:41:39;99626.50;;;22.66;34.85
46714;BME280;32445;51.376;10.874;2023-06-14T09:44:39;99615.94;;;22.77;35.02
46714;BME280;32445;51.376;10.874;2023-06-14T09:47:40;99619.59;;;22.88;34.82
46714;BME280;32445;51.376;10.874;2023-06-14T09:50:41;99613.50;;;22.98;33.86
46714;BME280;32445;51.376;10.874;2023-06-14T09:53:42;99611.69;;;23.10;33.38
46714;BME280;32445;51.376;10.874;2023-06-14T09:56:47;99618.00;;;23.21;32.91
46714;BME280;32445;51.376;10.874;2023-06-14T09:59:53;99617.19;;;23.31;33.52
46714;BME280;32445;51.376;10.874;2023-06-14T10:02:58;99617.91;;;23.45;33.78
46714;BME280;32445;51.376;10.874;2023-06-14T10:06:02;99615.75;;;23.61;33.47
46714;BME280;32445;51.376;10.874;2023-06-14T10:09:08;99620.31;;;23.82;33.42
46714;BME280;32445;51.376;10.874;2023-06-14T10:12:10;99608.97;;;24.02;32.56
46714;BME280;32445;51.376;10.874;2023-06-14T10:15:21;99608.47;;;24.20;32.47
46714;BME280;32445;51.376;10.874;2023-06-14T10:24:57;99608.88;;;25.11;31.45
46714;BME280;32445;51.376;10.874;2023-06-14T10:28:15;99614.25;;;25.42;30.74
46714;BME280;32445;51.376;10.874;2023-06-14T10:31:17;99610.56;;;25.64;30.16
46714;BME280;32445;51.376;10.874;2023-06-14T10:34:28;99609.50;;;25.86;29.98
46714;BME280;32445;51.376;10.874;2023-06-14T10:37:28;99613.22;;;26.05;29.80
46714;BME280;32445;51.376;10.874;2023-06-14T10:40:30;99606.78;;;26.17;29.93
46714;BME280;32445;51.376;10.874;2023-06-14T10:43:31;99595.34;;;26.27;30.03
46714;BME280;32445;51.376;10.874;2023-06-14T10:46:31;99599.66;;;26.37;29.38
46714;BME280;32445;51.376;10.874;2023-06-14T10:52:43;99590.72;;;26.48;28.98
46714;BME280;32445;51.376;10.874;2023-06-14T10:55:43;99594.91;;;26.51;28.59
46714;BME280;32445;51.376;10.874;2023-06-14T10:58:44;99591.97;;;26.54;28.69
46714;BME280;32445;51.376;10.874;2023-06-14T11:05:03;99584.94;;;26.82;28.52
46714;BME280;32445;51.376;10.874;2023-06-14T11:11:30;99575.97;;;27.31;27.71
46714;BME280;32445;51.376;10.874;2023-06-14T11:14:31;99576.13;;;27.39;27.63
46714;BME280;32445;51.376;10.874;2023-06-14T11:17:32;99569.81;;;27.40;27.38
46714;BME280;32445;51.376;10.874;2023-06-14T11:20:34;99566.28;;;27.39;26.81
46714;BME280;32445;51.376;10.874;2023-06-14T11:23:38;99564.88;;;27.45;26.83
46714;BME280;32445;51.376;10.874;2023-06-14T11:26:40;99558.97;;;27.51;26.94
46714;BME280;32445;51.376;10.874;2023-06-14T11:29:47;99554.31;;;27.53;26.48
46714;BME280;32445;51.376;10.874;2023-06-14T11:32:49;99562.25;;;27.63;26.48
46714;BME280;32445;51.376;10.874;2023-06-14T11:35:51;99567.09;;;27.77;26.81
46714;BME280;32445;51.376;10.874;2023-06-14T11:38:57;99567.34;;;27.84;27.33
46714;BME280;32445;51.376;10.874;2023-06-14T11:41:57;99553.69;;;27.87;27.10
46714;BME280;32445;51.376;10.874;2023-06-14T11:45:01;99564.22;;;27.89;26.32
46714;BME280;32445;51.376;10.874;2023-06-14T11:48:03;99557.59;;;27.93;26.62
46714;BME280;32445;51.376;10.874;2023-06-14T11:51:03;99559.38;;;28.02;26.32
46714;BME280;32445;51.376;10.874;2023-06-14T11:54:05;99554.78;;;28.12;26.41
46714;BME280;32445;51.376;10.874;2023-06-14T11:57:09;99553.97;;;28.30;25.76
46714;BME280;32445;51.376;10.874;2023-06-14T12:00:11;99560.22;;;28.39;25.93
46714;BME280;32445;51.376;10.874;2023-06-14T12:03:15;99553.28;;;28.46;25.63
46714;BME280;32445;51.376;10.874;2023-06-14T12:06:16;99555.78;;;28.47;25.68
46714;BME280;32445;51.376;10.874;2023-06-14T12:09:25;99548.44;;;28.49;25.65
46714;BME280;32445;51.376;10.874;2023-06-14T12:12:27;99551.66;;;28.53;25.75
46714;BME280;32445;51.376;10.874;2023-06-14T12:15:28;99552.47;;;28.54;25.85
46714;BME280;32445;51.376;10.874;2023-06-14T12:18:36;99546.97;;;28.55;26.13
46714;BME280;32445;51.376;10.874;2023-06-14T12:21:37;99544.84;;;28.59;26.25
46714;BME280;32445;51.376;10.874;2023-06-14T12:24:39;99545.78;;;28.68;25.48
46714;BME280;32445;51.376;10.874;2023-06-14T12:27:42;99552.66;;;28.70;25.86
46714;BME280;32445;51.376;10.874;2023-06-14T12:30:42;99548.69;;;28.74;25.07
46714;BME280;32445;51.376;10.874;2023-06-14T12:33:43;99545.16;;;28.74;25.30
46714;BME280;32445;51.376;10.874;2023-06-14T12:36:43;99551.94;;;28.68;25.77
46714;BME280;32445;51.376;10.874;2023-06-14T12:39:46;99548.78;;;28.64;25.92
46714;BME280;32445;51.376;10.874;2023-06-14T12:42:46;99543.94;;;28.68;26.93
46714;BME280;32445;51.376;10.874;2023-06-14T12:45:49;99550.34;;;28.75;26.30
46714;BME280;32445;51.376;10.874;2023-06-14T12:48:49;99543.03;;;28.86;26.22
46714;BME280;32445;51.376;10.874;2023-06-14T12:51:50;99551.13;;;28.94;26.47
46714;BME280;32445;51.376;10.874;2023-06-14T12:54:50;99559.69;;;29.06;25.75
46714;BME280;32445;51.376;10.874;2023-06-14T12:57:50;99558.38;;;29.10;26.44
46714;BME280;32445;51.376;10.874;2023-06-14T13:00:51;99562.09;;;29.17;26.00
46714;BME280;32445;51.376;10.874;2023-06-14T13:03:51;99560.13;;;29.19;26.63
46714;BME280;32445;51.376;10.874;2023-06-14T13:06:53;99561.03;;;29.28;27.07
46714;BME280;32445;51.376;10.874;2023-06-14T13:09:54;99558.03;;;29.31;26.22
46714;BME280;32445;51.376;10.874;2023-06-14T13:12:54;99570.19;;;29.25;25.54
46714;BME280;32445;51.376;10.874;2023-06-14T13:15:54;99568.97;;;29.20;26.78
46714;BME280;32445;51.376;10.874;2023-06-14T13:18:55;99563.72;;;29.10;26.08
46714;BME280;32445;51.376;10.874;2023-06-14T13:21:55;99565.84;;;28.98;25.97
46714;BME280;32445;51.376;10.874;2023-06-14T13:24:55;99563.81;;;28.92;26.21
46714;BME280;32445;51.376;10.874;2023-06-14T13:27:56;99556.63;;;28.92;26.92
46714;BME280;32445;51.376;10.874;2023-06-14T13:30:56;99560.72;;;29.05;26.96
46714;BME280;32445;51.376;10.874;2023-06-14T13:33:56;99547.25;;;29.14;26.88
46714;BME280;32445;51.376;10.874;2023-06-14T13:36:57;99550.09;;;29.21;26.55
46714;BME280;32445;51.376;10.874;2023-06-14T13:39:59;99557.97;;;29.23;26.25
46714;BME280;32445;51.376;10.874;2023-06-14T13:42:59;99560.94;;;29.20;26.62
46714;BME280;32445;51.376;10.874;2023-06-14T13:45:59;99563.28;;;29.14;27.02
46714;BME280;32445;51.376;10.874;2023-06-14T13:49:00;99558.53;;;29.08;26.83
46714;BME280;32445;51.376;10.874;2023-06-14T13:52:02;99551.38;;;29.09;26.87
46714;BME280;32445;51.376;10.874;2023-06-14T13:55:03;99540.72;;;29.17;26.53
46714;BME280;32445;51.376;10.874;2023-06-14T13:58:03;99545.50;;;29.31;26.92
46714;BME280;32445;51.376;10.874;2023-06-14T14:01:03;99545.41;;;29.49;26.68
46714;BME280;32445;51.376;10.874;2023-06-14T14:04:04;99542.97;;;29.73;27.04
46714;BME280;32445;51.376;10.874;2023-06-14T14:07:05;99537.69;;;29.89;26.27
46714;BME280;32445;51.376;10.874;2023-06-14T14:10:06;99537.88;;;29.88;25.78
46714;BME280;32445;51.376;10.874;2023-06-14T14:13:07;99541.69;;;29.85;26.06
46714;BME280;32445;51.376;10.874;2023-06-14T14:16:07;99549.91;;;29.83;26.98
46714;BME280;32445;51.376;10.874;2023-06-14T14:19:07;99555.84;;;29.77;26.29
46714;BME280;32445;51.376;10.874;2023-06-14T14:22:07;99557.50;;;29.70;26.95
46714;BME280;32445;51.376;10.874;2023-06-14T14:25:09;99561.81;;;29.63;26.25
46714;BME280;32445;51.376;10.874;2023-06-14T14:28:09;99560.31;;;29.52;26.15
46714;BME280;32445;51.376;10.874;2023-06-14T14:31:11;99558.41;;;29.44;26.12
46714;BME280;32445;51.376;10.874;2023-06-14T14:34:12;99558.06;;;29.39;26.37
46714;BME280;32445;51.376;10.874;2023-06-14T14:37:12;99565.72;;;29.34;26.82
46714;BME280;32445;51.376;10.874;2023-06-14T14:40:15;99564.19;;;29.31;26.24
46714;BME280;32445;51.376;10.874;2023-06-14T14:43:15;99554.00;;;29.27;26.34
46714;BME280;32445;51.376;10.874;2023-06-14T14:46:15;99558.69;;;29.25;26.61
46714;BME280;32445;51.376;10.874;2023-06-14T14:49:17;99556.84;;;29.25;26.82
46714;BME280;32445;51.376;10.874;2023-06-14T14:52:17;99561.50;;;29.23;26.80
46714;BME280;32445;51.376;10.874;2023-06-14T14:55:17;99557.28;;;29.21;26.73
46714;BME280;32445;51.376;10.874;2023-06-14T14:58:18;99558.97;;;29.22;27.11
46714;BME280;32445;51.376;10.874;2023-06-14T15:01:18;99558.84;;;29.23;27.87
46714;BME280;32445;51.376;10.874;2023-06-14T15:04:18;99553.22;;;29.34;26.87
46714;BME280;32445;51.376;10.874;2023-06-14T15:07:19;99544.09;;;29.54;27.21
46714;BME280;32445;51.376;10.874;2023-06-14T15:10:19;99550.81;;;29.74;26.91
46714;BME280;32445;51.376;10.874;2023-06-14T15:13:19;99552.44;;;29.93;26.98
46714;BME280;32445;51.376;10.874;2023-06-14T15:16:20;99550.44;;;30.03;25.81
46714;BME280;32445;51.376;10.874;2023-06-14T15:19:20;99547.41;;;30.07;26.57
46714;BME280;32445;51.376;10.874;2023-06-14T15:22:21;99548.91;;;30.17;26.96
46714;BME280;32445;51.376;10.874;2023-06-14T15:25:21;99546.09;;;30.35;26.99
46714;BME280;32445;51.376;10.874;2023-06-14T15:28:21;99536.25;;;30.52;26.26
46714;BME280;32445;51.376;10.874;2023-06-14T15:31:24;99538.06;;;30.77;25.73
46714;BME280;32445;51.376;10.874;2023-06-14T15:34:27;99546.06;;;31.01;25.22
46714;BME280;32445;51.376;10.874;2023-06-14T15:37:28;99535.97;;;31.12;25.80
46714;BME280;32445;51.376;10.874;2023-06-14T15:40:28;99548.22;;;31.14;24.94
46714;BME280;32445;51.376;10.874;2023-06-14T15:43:29;99552.25;;;31.10;25.74
46714;BME280;32445;51.376;10.874;2023-06-14T15:46:29;99542.88;;;30.98;24.36
46714;BME280;32445;51.376;10.874;2023-06-14T15:49:29;99554.13;;;30.85;24.31
46714;BME280;32445;51.376;10.874;2023-06-14T15:52:30;99555.97;;;30.76;25.73
46714;BME280;32445;51.376;10.874;2023-06-14T15:55:30;99556.34;;;30.65;24.77
46714;BME280;32445;51.376;10.874;2023-06-14T15:58:31;99544.13;;;30.54;26.04
46714;BME280;32445;51.376;10.874;2023-06-14T16:01:31;99551.16;;;30.47;25.27
46714;BME280;32445;51.376;10.874;2023-06-14T16:04:31;99548.09;;;30.42;25.96
46714;BME280;32445;51.376;10.874;2023-06-14T16:07:32;99549.44;;;30.37;25.46